KTLH/TLH METAR and TAF weather

Enter ICAO airport designator
Station Type Date Time Source
KTLH METAR 2019/11/18 08:53 UTC NOAA

KTLH 180853Z AUTO 00000KT 10SM BKN039 10/09 A2988 RMK AO2 SLP115 T01000089 56005


Station Type Date Time Source
KTLH Decoded METAR 2019/11/18 08:53 UTC NOAA

TALLAHASSEE REGIONAL AIRPORT , FL, United States (KTLH) 30-24N 84-21W 16M
Nov 18, 2019 - 03:53 AM EST / 2019.11.18 0853 UTC
Wind: Calm:0
Visibility: 10 mile(s):0
Sky conditions: mostly cloudy
Temperature: 50.0 F (10.0 C)
Dew Point: 48.0 F (8.9 C)
Relative Humidity: 92%
Pressure (altimeter): 29.88 in. Hg (1011 hPa)
Pressure tendency: 0.01 inches (0.5 hPa) lower than three hours ago
ob: KTLH 180853Z AUTO 00000KT 10SM BKN039 10/09 A2988 RMK AO2 SLP115 T01000089 56005
cycle: 9

Station Type Date Time Source
KTLH TAF 2019/11/18 06:22 UTC NOAA

TAF KTLH 180520Z 1806/1906 00000KT P6SM OVC035
FM181500 28007KT P6SM SCT035

Example: see airport list